Time;durP1;ratioP1;P1;durP2;ratioP2;P2;SDS_P1;SDS_P2;PMS_P1;PMS_P2;Temp;Humidity;BMP_temperature;BMP_pressure;BME280_temperature;BME280_humidity;BME280_pressure;Samples;Min_cycle;Max_cycle;Signal;HPM_P1;HPM_P2
2021/07/19 00:01:44;;;;;;;1.93;1.20;;;30.50;47.50;;;;;;5012920;28;20467;-28
2021/07/19 00:04:17;;;;;;;1.00;1.00;;;30.40;48.10;;;;;;5014772;28;20510;-28
2021/07/19 00:06:49;;;;;;;1.83;1.13;;;30.40;48.80;;;;;;5022159;28;20486;-28
2021/07/19 00:09:20;;;;;;;2.20;1.27;;;30.20;49.50;;;;;;5015251;28;20453;-27
2021/07/19 00:11:52;;;;;;;1.00;1.00;;;30.10;48.60;;;;;;5023576;28;20549;-27
2021/07/19 00:14:23;;;;;;;0.80;0.80;;;30.00;48.30;;;;;;5012509;28;20476;-28
2021/07/19 00:16:54;;;;;;;1.13;1.03;;;29.90;47.80;;;;;;5014122;28;20492;-28
2021/07/19 00:19:27;;;;;;;1.30;1.20;;;29.90;48.60;;;;;;5010803;28;20459;-28
2021/07/19 00:21:58;;;;;;;0.90;0.90;;;29.80;48.80;;;;;;5006880;28;20456;-27
2021/07/19 00:24:29;;;;;;;1.70;1.10;;;29.70;48.90;;;;;;5009320;28;20491;-27
2021/07/19 00:27:00;;;;;;;1.20;1.10;;;29.70;47.50;;;;;;5017767;28;20924;-29
2021/07/19 00:29:32;;;;;;;1.30;1.20;;;29.50;48.00;;;;;;5022125;28;20546;-27
2021/07/19 00:32:03;;;;;;;1.17;1.07;;;29.50;47.80;;;;;;5011691;28;20482;-28
2021/07/19 00:34:36;;;;;;;1.17;1.07;;;29.50;46.90;;;;;;5011239;28;20447;-29
2021/07/19 00:37:07;;;;;;;1.10;1.00;;;29.40;44.80;;;;;;5019398;28;20952;-28
2021/07/19 00:39:38;;;;;;;1.20;1.20;;;29.40;46.40;;;;;;5017729;28;20505;-28
2021/07/19 00:42:10;;;;;;;1.47;1.37;;;29.40;46.90;;;;;;5004695;28;20512;-28
2021/07/19 00:44:41;;;;;;;1.40;0.97;;;29.30;48.00;;;;;;5017351;28;20448;-28
2021/07/19 00:47:28;;;;;;;1.50;1.40;;;29.30;47.90;;;;;;5023269;28;20448;-27
2021/07/19 00:50:01;;;;;;;1.17;1.17;;;29.20;48.50;;;;;;5022636;28;20461;-27
2021/07/19 00:52:33;;;;;;;2.73;1.40;;;29.10;49.00;;;;;;5022979;28;20494;-28
2021/07/19 00:55:05;;;;;;;2.73;1.47;;;29.00;49.80;;;;;;5020581;28;20521;-28
2021/07/19 00:57:39;;;;;;;1.17;1.13;;;29.00;47.90;;;;;;5019985;28;20948;-27
2021/07/19 01:00:12;;;;;;;1.43;1.10;;;29.00;47.30;;;;;;5013179;28;20452;-28
2021/07/19 01:02:46;;;;;;;1.10;1.10;;;28.90;46.70;;;;;;5004376;28;20458;-27
2021/07/19 01:05:19;;;;;;;1.40;1.30;;;28.90;46.70;;;;;;5006712;28;20469;-28
2021/07/19 01:07:50;;;;;;;1.17;1.07;;;29.00;48.00;;;;;;5004795;28;20448;-27
2021/07/19 01:10:21;;;;;;;3.00;2.70;;;29.00;47.20;;;;;;5014155;28;20479;-28
2021/07/19 01:12:54;;;;;;;2.37;1.80;;;28.90;46.10;;;;;;5004041;28;20490;-27
2021/07/19 01:15:26;;;;;;;1.47;1.30;;;28.90;47.10;;;;;;5011288;28;20474;-27
2021/07/19 01:17:57;;;;;;;1.33;1.07;;;28.90;45.80;;;;;;5022632;28;20461;-28
2021/07/19 01:20:41;;;;;;;0.90;0.90;;;28.80;46.10;;;;;;5013752;28;20449;-28
2021/07/19 01:23:46;;;;;;;1.40;0.97;;;28.80;46.80;;;;;;5023086;28;20450;-27
2021/07/19 01:26:33;;;;;;;1.20;1.10;;;28.70;46.30;;;;;;5013610;28;20453;-28
2021/07/19 01:29:08;;;;;;;3.20;1.70;;;28.70;46.50;;;;;;5004458;28;20500;-27
2021/07/19 01:31:44;;;;;;;0.93;0.83;;;28.60;47.00;;;;;;5013611;28;20541;-27
2021/07/19 01:34:20;;;;;;;1.53;1.03;;;28.60;46.70;;;;;;5004377;28;20482;-27
2021/07/19 01:36:55;;;;;;;0.80;0.80;;;28.50;47.90;;;;;;5003059;28;20493;-27
2021/07/19 01:39:27;;;;;;;1.07;1.07;;;28.50;47.10;;;;;;5009350;28;20513;-27
2021/07/19 01:41:58;;;;;;;1.00;1.00;;;28.50;46.50;;;;;;5016406;28;20505;-27
2021/07/19 01:44:31;;;;;;;0.97;0.97;;;28.40;48.00;;;;;;5015020;28;20451;-26
2021/07/19 01:47:08;;;;;;;1.10;0.97;;;28.40;50.10;;;;;;5013367;28;20458;-27
2021/07/19 01:49:42;;;;;;;2.50;1.53;;;28.30;51.10;;;;;;5019892;28;20457;-27
2021/07/19 01:52:14;;;;;;;1.60;1.50;;;28.30;51.90;;;;;;5011511;28;20516;-27
2021/07/19 01:54:46;;;;;;;1.43;1.33;;;28.20;52.20;;;;;;5018938;28;20450;-27
2021/07/19 01:57:17;;;;;;;1.40;1.30;;;28.20;52.80;;;;;;5003407;28;20777;-28
2021/07/19 01:59:50;;;;;;;1.50;1.40;;;28.10;53.30;;;;;;5012843;28;20467;-27
2021/07/19 02:02:23;;;;;;;1.67;1.57;;;28.10;53.70;;;;;;5012144;28;20543;-27
2021/07/19 02:04:54;;;;;;;1.60;1.50;;;28.10;53.50;;;;;;5020066;28;20449;-27
2021/07/19 02:07:28;;;;;;;1.77;1.30;;;28.00;54.40;;;;;;5012760;28;20571;-26
2021/07/19 02:10:00;;;;;;;1.57;1.47;;;27.90;55.30;;;;;;5016446;28;20458;-27
2021/07/19 02:12:31;;;;;;;2.43;1.70;;;27.90;56.00;;;;;;5021648;28;20543;-27
2021/07/19 02:15:07;;;;;;;1.77;1.67;;;27.80;55.70;;;;;;5004861;28;20447;-26
2021/07/19 02:17:39;;;;;;;1.60;1.50;;;27.80;55.80;;;;;;5004438;28;20448;-26
2021/07/19 02:20:12;;;;;;;1.50;1.40;;;27.70;55.80;;;;;;5013120;28;20482;-26
2021/07/19 02:22:45;;;;;;;1.83;1.73;;;27.60;56.60;;;;;;5015530;28;20483;-26
2021/07/19 02:25:18;;;;;;;1.70;1.60;;;27.50;57.80;;;;;;5019925;28;20936;-27
2021/07/19 02:27:51;;;;;;;1.80;1.70;;;27.30;58.70;;;;;;5010963;28;20452;-27
2021/07/19 02:30:25;;;;;;;1.60;1.50;;;27.40;58.80;;;;;;5014319;28;20440;-27
2021/07/19 02:32:58;;;;;;;1.77;1.67;;;27.40;58.70;;;;;;5005721;28;20515;-27
2021/07/19 02:35:31;;;;;;;1.90;1.80;;;27.30;58.80;;;;;;5003104;28;20459;-27
2021/07/19 02:38:05;;;;;;;1.93;1.40;;;27.40;58.90;;;;;;5018712;28;20521;-27
2021/07/19 02:40:38;;;;;;;3.07;1.80;;;27.40;59.00;;;;;;5003799;28;20535;-28
2021/07/19 02:43:11;;;;;;;1.90;1.77;;;27.30;59.70;;;;;;5015547;28;20451;-27
2021/07/19 02:45:47;;;;;;;1.67;1.57;;;27.20;59.60;;;;;;5009286;28;20451;-28
2021/07/19 02:48:18;;;;;;;2.03;1.83;;;27.10;60.40;;;;;;5005076;28;20535;-27
2021/07/19 02:50:51;;;;;;;1.30;1.20;;;27.00;60.40;;;;;;5015588;28;20460;-28
2021/07/19 02:53:23;;;;;;;1.50;1.40;;;27.00;59.70;;;;;;5002949;28;20511;-27
2021/07/19 02:55:58;;;;;;;1.87;1.70;;;26.90;60.80;;;;;;5003952;28;20459;-25
2021/07/19 02:58:30;;;;;;;1.70;1.60;;;26.90;62.30;;;;;;5003974;28;20482;-27
2021/07/19 03:01:06;;;;;;;1.77;1.60;;;26.70;63.00;;;;;;5012979;28;20478;-27
2021/07/19 03:03:39;;;;;;;1.53;1.43;;;26.60;64.20;;;;;;5017607;28;20528;-26
2021/07/19 03:06:11;;;;;;;2.37;1.67;;;26.50;65.40;;;;;;5017508;28;20459;-26
2021/07/19 03:08:44;;;;;;;2.07;1.90;;;26.30;66.80;;;;;;5020792;28;20835;-26
2021/07/19 03:11:20;;;;;;;1.70;1.60;;;26.30;67.20;;;;;;5023593;28;20462;-26
2021/07/19 03:13:55;;;;;;;1.97;1.83;;;26.10;67.60;;;;;;5015739;28;20944;-27
2021/07/19 03:16:29;;;;;;;4.37;2.40;;;26.10;68.20;;;;;;5012501;28;20459;-28
2021/07/19 03:19:03;;;;;;;1.90;1.80;;;26.10;68.40;;;;;;5016695;28;20544;-28
2021/07/19 03:21:37;;;;;;;2.40;2.20;;;26.10;68.70;;;;;;5015181;28;20458;-26
2021/07/19 03:24:10;;;;;;;1.70;1.60;;;26.10;68.30;;;;;;5021839;28;20574;-27
2021/07/19 03:26:43;;;;;;;2.10;1.80;;;26.10;68.10;;;;;;5011025;28;20444;-27
2021/07/19 03:29:15;;;;;;;2.10;2.00;;;26.10;69.10;;;;;;5010662;28;20462;-27
2021/07/19 03:31:49;;;;;;;2.07;1.93;;;26.00;69.10;;;;;;5012562;28;20466;-27
2021/07/19 03:34:23;;;;;;;2.43;2.10;;;26.00;69.40;;;;;;5015264;28;20492;-27
2021/07/19 03:36:55;;;;;;;2.00;1.90;;;26.00;69.10;;;;;;5020115;28;20507;-27
2021/07/19 03:39:26;;;;;;;2.77;1.83;;;25.90;70.00;;;;;;5014625;28;20454;-26
2021/07/19 03:41:58;;;;;;;1.97;1.87;;;25.70;71.20;;;;;;5019218;28;20514;-27
2021/07/19 03:44:30;;;;;;;2.03;1.83;;;25.50;72.20;;;;;;5005832;28;20458;-28
2021/07/19 03:47:03;;;;;;;2.20;1.93;;;25.40;72.70;;;;;;5011408;28;20454;-27
2021/07/19 03:49:36;;;;;;;2.23;2.03;;;25.40;72.70;;;;;;5019781;28;20961;-28
2021/07/19 03:52:07;;;;;;;2.00;1.53;;;25.40;73.20;;;;;;5017807;28;20474;-28
2021/07/19 03:54:38;;;;;;;3.63;2.10;;;25.30;73.50;;;;;;5015793;28;20915;-28
2021/07/19 03:57:12;;;;;;;2.47;2.27;;;25.20;74.40;;;;;;5022498;28;20516;-28
2021/07/19 03:59:43;;;;;;;1.87;1.77;;;25.10;77.20;;;;;;5021851;28;20486;-28
2021/07/19 04:02:18;;;;;;;2.70;2.47;;;24.90;78.10;;;;;;5008451;28;20522;-27
2021/07/19 04:05:02;;;;;;;2.40;1.70;;;24.80;81.40;;;;;;5014234;28;20464;-28
2021/07/19 04:07:36;;;;;;;1.83;1.73;;;24.60;79.60;;;;;;5005146;28;20474;-28
2021/07/19 04:10:09;;;;;;;2.23;2.13;;;24.60;80.60;;;;;;5018754;28;20510;-28
2021/07/19 04:12:42;;;;;;;2.40;2.20;;;24.40;81.20;;;;;;5013752;28;20556;-27
2021/07/19 04:15:14;;;;;;;4.63;2.00;;;24.20;81.80;;;;;;5009841;28;20455;-27
2021/07/19 04:17:48;;;;;;;1.77;1.67;;;24.10;84.00;;;;;;5016432;28;20467;-27
2021/07/19 04:20:19;;;;;;;2.23;2.10;;;24.10;84.00;;;;;;5020011;28;20451;-27
2021/07/19 04:22:50;;;;;;;3.07;2.03;;;24.00;84.40;;;;;;5013399;28;20463;-27
2021/07/19 04:25:21;;;;;;;2.23;2.10;;;24.00;85.90;;;;;;5023039;28;20429;-28
2021/07/19 04:27:53;;;;;;;2.20;2.00;;;23.90;86.00;;;;;;5020155;28;20454;-28
2021/07/19 04:30:34;;;;;;;3.60;2.47;;;23.90;86.30;;;;;;5019833;28;20462;-27
2021/07/19 04:33:07;;;;;;;2.17;1.83;;;23.90;86.40;;;;;;5021818;28;20490;-27
2021/07/19 04:35:38;;;;;;;3.67;2.20;;;23.70;87.90;;;;;;5018264;28;20472;-28
2021/07/19 04:38:09;;;;;;;2.10;1.90;;;23.70;87.50;;;;;;5011829;28;20473;-27
2021/07/19 04:40:40;;;;;;;2.70;2.30;;;23.70;87.00;;;;;;5024355;28;20548;-27
2021/07/19 04:43:11;;;;;;;2.83;2.13;;;23.70;88.20;;;;;;5020584;28;20464;-27
2021/07/19 04:45:43;;;;;;;1.87;1.70;;;23.60;88.60;;;;;;5008420;28;20458;-27
2021/07/19 04:48:16;;;;;;;2.60;2.40;;;23.50;88.70;;;;;;5010697;28;21021;-27
2021/07/19 04:50:48;;;;;;;2.20;1.97;;;23.40;90.00;;;;;;5004655;28;20978;-27
2021/07/19 04:53:19;;;;;;;2.10;1.90;;;23.40;89.70;;;;;;5009413;28;20471;-28
2021/07/19 04:55:53;;;;;;;1.77;1.67;;;23.30;90.50;;;;;;5011232;28;20446;-27
2021/07/19 04:58:25;;;;;;;1.47;1.37;;;23.30;90.70;;;;;;5014367;28;20459;-27
2021/07/19 05:01:01;;;;;;;2.00;1.90;;;23.30;90.70;;;;;;5004309;28;20498;-27
2021/07/19 05:03:40;;;;;;;2.27;2.07;;;23.10;91.50;;;;;;5010973;28;20554;-26
2021/07/19 05:06:12;;;;;;;2.57;1.90;;;23.10;91.50;;;;;;5017461;28;20937;-27
2021/07/19 05:08:46;;;;;;;2.27;2.07;;;23.00;92.10;;;;;;5016784;28;20433;-29
2021/07/19 05:11:18;;;;;;;2.00;1.70;;;23.00;92.20;;;;;;5013869;28;20504;-27
2021/07/19 05:13:49;;;;;;;2.27;2.07;;;23.00;92.60;;;;;;5014889;28;20457;-27
2021/07/19 05:16:21;;;;;;;2.03;1.90;;;23.00;93.30;;;;;;5014882;28;20843;-27
2021/07/19 05:18:55;;;;;;;3.17;2.20;;;22.90;93.60;;;;;;5015274;28;20521;-27
2021/07/19 05:21:26;;;;;;;2.40;2.20;;;22.70;94.60;;;;;;5009632;28;20545;-26
2021/07/19 05:23:57;;;;;;;3.70;1.83;;;22.70;94.50;;;;;;5020717;28;20458;-34
2021/07/19 05:26:28;;;;;;;5.17;2.40;;;22.60;95.20;;;;;;5018602;28;20511;-28
2021/07/19 05:29:00;;;;;;;2.70;2.40;;;22.60;95.60;;;;;;5015366;28;20469;-27
2021/07/19 05:31:31;;;;;;;2.57;1.90;;;22.50;96.40;;;;;;5006595;28;20525;-27
2021/07/19 05:34:03;;;;;;;2.23;2.03;;;22.40;97.10;;;;;;5022154;28;20485;-28
2021/07/19 05:36:34;;;;;;;2.07;1.87;;;22.40;97.20;;;;;;5013801;28;20447;-27
2021/07/19 05:39:06;;;;;;;1.80;1.50;;;22.30;98.10;;;;;;5007063;28;20498;-27
2021/07/19 05:41:36;;;;;;;2.43;2.30;;;22.20;98.60;;;;;;5022173;28;20872;-28
2021/07/19 05:44:10;;;;;;;2.17;2.00;;;22.20;98.80;;;;;;5023029;28;20498;-28
2021/07/19 05:46:41;;;;;;;2.53;2.33;;;22.20;99.10;;;;;;5019239;28;20489;-28
2021/07/19 05:49:14;;;;;;;1.83;1.60;;;22.10;99.40;;;;;;5006446;28;20421;-28
2021/07/19 05:51:45;;;;;;;2.13;1.93;;;22.00;99.70;;;;;;5020588;28;20466;-28
2021/07/19 05:54:16;;;;;;;2.90;2.07;;;21.90;99.90;;;;;;5013067;28;20444;-29
2021/07/19 05:56:47;;;;;;;3.50;2.30;;;21.90;99.90;;;;;;5013845;28;20446;-27
2021/07/19 05:59:18;;;;;;;2.97;1.90;;;21.80;99.90;;;;;;5022557;28;20469;-27
2021/07/19 06:01:49;;;;;;;2.37;2.17;;;21.70;99.90;;;;;;5020148;28;20458;-28
2021/07/19 06:04:22;;;;;;;2.63;2.00;;;21.60;99.90;;;;;;5014809;28;20454;-28
2021/07/19 06:06:53;;;;;;;1.87;1.73;;;21.70;99.90;;;;;;5014520;28;20473;-28
2021/07/19 06:09:24;;;;;;;3.13;1.90;;;21.60;99.90;;;;;;5012107;28;20917;-28
2021/07/19 06:11:55;;;;;;;3.30;1.90;;;21.60;99.90;;;;;;5011209;28;20457;-28
2021/07/19 06:14:26;;;;;;;2.70;2.10;;;21.50;99.90;;;;;;5014770;28;20456;-27
2021/07/19 06:16:57;;;;;;;2.10;1.60;;;21.40;99.90;;;;;;5003418;28;20459;-27
2021/07/19 06:19:30;;;;;;;2.07;1.87;;;21.30;99.90;;;;;;5003714;28;20433;-28
2021/07/19 06:22:01;;;;;;;2.40;2.10;;;21.20;99.90;;;;;;5007849;28;20839;-28
2021/07/19 06:24:32;;;;;;;2.67;1.60;;;21.10;99.90;;;;;;5011314;28;20418;-28
2021/07/19 06:27:03;;;;;;;3.47;1.90;;;21.10;99.90;;;;;;5013846;28;20479;-27
2021/07/19 06:29:35;;;;;;;5.97;1.87;;;21.00;99.90;;;;;;5010027;28;20429;-28
2021/07/19 06:32:06;;;;;;;2.07;1.70;;;21.00;99.90;;;;;;5013122;28;20437;-28
2021/07/19 06:34:39;;;;;;;1.80;1.57;;;20.90;99.90;;;;;;5018616;28;20486;-28
2021/07/19 06:37:10;;;;;;;2.87;1.50;;;20.90;99.90;;;;;;5004617;28;20486;-28
2021/07/19 06:39:41;;;;;;;1.93;1.73;;;20.80;99.90;;;;;;5020982;28;20434;-28
2021/07/19 06:42:12;;;;;;;2.10;2.00;;;20.80;99.90;;;;;;5021876;28;20570;-28
2021/07/19 06:44:43;;;;;;;2.23;1.97;;;20.70;99.90;;;;;;5023542;28;20448;-28
2021/07/19 06:47:14;;;;;;;2.07;1.50;;;20.70;99.90;;;;;;5026107;28;20453;-28
2021/07/19 06:49:46;;;;;;;4.90;2.17;;;20.70;99.90;;;;;;5021239;28;20447;-28
2021/07/19 06:52:17;;;;;;;2.33;1.87;;;20.60;99.90;;;;;;5006489;28;20447;-28
2021/07/19 06:54:48;;;;;;;1.83;1.73;;;20.60;99.90;;;;;;5010741;28;20449;-27
2021/07/19 06:57:20;;;;;;;2.03;1.83;;;20.50;99.90;;;;;;5014991;28;20444;-28
2021/07/19 06:59:51;;;;;;;2.70;1.93;;;20.40;99.90;;;;;;5013881;28;20454;-27
2021/07/19 07:02:21;;;;;;;1.90;1.80;;;20.50;99.90;;;;;;5025527;28;20454;-28
2021/07/19 07:04:54;;;;;;;2.10;1.90;;;20.40;99.90;;;;;;5021922;28;20509;-28
2021/07/19 07:07:25;;;;;;;2.70;1.83;;;20.40;99.90;;;;;;5007462;28;20422;-28
2021/07/19 07:09:56;;;;;;;1.93;1.80;;;20.30;99.90;;;;;;5015937;28;20926;-28
2021/07/19 07:12:27;;;;;;;2.60;1.40;;;20.30;99.90;;;;;;5024742;28;20984;-27
2021/07/19 07:14:58;;;;;;;2.70;1.90;;;20.20;99.90;;;;;;5023077;28;20468;-27
2021/07/19 07:17:29;;;;;;;2.20;1.50;;;20.20;99.90;;;;;;5009306;28;20429;-28
2021/07/19 07:20:02;;;;;;;2.13;1.93;;;20.10;99.90;;;;;;5008386;28;20473;-28
2021/07/19 07:22:33;;;;;;;2.63;1.97;;;20.00;99.90;;;;;;5020939;28;20424;-28
2021/07/19 07:25:05;;;;;;;2.20;1.80;;;20.00;99.90;;;;;;5016442;28;20514;-28
2021/07/19 07:27:36;;;;;;;3.70;2.13;;;19.90;99.90;;;;;;5016245;28;20498;-28
2021/07/19 07:30:09;;;;;;;2.90;1.90;;;19.90;99.90;;;;;;5009321;28;20481;-27
2021/07/19 07:32:40;;;;;;;2.17;1.87;;;19.80;99.90;;;;;;5023686;28;20491;-27
2021/07/19 07:35:14;;;;;;;2.50;1.93;;;19.80;99.90;;;;;;5019585;28;20468;-27
2021/07/19 07:37:45;;;;;;;3.17;2.30;;;19.70;99.90;;;;;;5013236;28;20442;-27
2021/07/19 07:40:20;;;;;;;3.20;1.60;;;19.70;99.90;;;;;;5008081;28;20455;-27
2021/07/19 07:42:51;;;;;;;1.70;1.60;;;19.70;99.90;;;;;;5013388;28;20453;-27
2021/07/19 07:45:25;;;;;;;2.13;1.90;;;19.70;99.90;;;;;;5024954;28;20461;-27
2021/07/19 07:47:56;;;;;;;2.13;2.03;;;19.60;99.90;;;;;;5025050;28;20458;-27
2021/07/19 07:50:29;;;;;;;1.73;1.60;;;19.60;99.90;;;;;;5008985;28;20486;-27
2021/07/19 07:53:00;;;;;;;3.90;2.00;;;19.50;99.90;;;;;;5013257;28;20478;-27
2021/07/19 07:55:31;;;;;;;2.20;1.70;;;19.50;99.90;;;;;;5010781;28;20456;-26
2021/07/19 07:58:02;;;;;;;1.90;1.60;;;19.40;99.90;;;;;;5024278;28;20470;-27
2021/07/19 08:00:33;;;;;;;1.93;1.83;;;19.40;99.90;;;;;;5019577;28;20482;-26
2021/07/19 08:03:05;;;;;;;1.83;1.53;;;19.40;99.90;;;;;;5013141;28;20447;-26
2021/07/19 08:05:38;;;;;;;2.00;1.80;;;19.30;99.90;;;;;;5014530;28;20567;-27
2021/07/19 08:08:09;;;;;;;2.23;2.03;;;19.10;99.90;;;;;;5004793;28;20462;-27
2021/07/19 08:10:40;;;;;;;2.17;1.70;;;19.10;99.90;;;;;;5010065;28;20558;-27
2021/07/19 08:13:11;;;;;;;2.60;1.70;;;19.10;99.90;;;;;;5019948;28;20446;-27
2021/07/19 08:15:47;;;;;;;1.97;1.70;;;19.10;99.90;;;;;;5016316;28;20438;-27
2021/07/19 08:18:18;;;;;;;1.57;1.30;;;19.10;99.90;;;;;;5010985;28;20432;-27
2021/07/19 08:20:51;;;;;;;2.27;1.90;;;19.00;99.90;;;;;;5013568;28;20524;-27
2021/07/19 08:23:22;;;;;;;2.40;1.63;;;19.00;99.90;;;;;;5007587;28;20465;-27
2021/07/19 08:25:53;;;;;;;2.93;1.60;;;18.90;99.90;;;;;;5017755;28;20917;-26
2021/07/19 08:28:27;;;;;;;2.90;2.10;;;18.80;99.90;;;;;;5017657;28;20460;-26
2021/07/19 08:30:59;;;;;;;2.50;1.60;;;18.80;99.90;;;;;;5009039;28;20454;-27
2021/07/19 08:33:29;;;;;;;2.43;1.77;;;18.90;99.90;;;;;;5007568;28;20565;-26
2021/07/19 08:36:02;;;;;;;2.10;1.90;;;18.90;99.90;;;;;;5004335;28;20487;-26
2021/07/19 08:38:33;;;;;;;1.63;1.43;;;18.90;99.90;;;;;;5011557;28;20486;-27
2021/07/19 08:41:05;;;;;;;2.13;1.93;;;18.90;99.90;;;;;;5009852;28;20494;-27
2021/07/19 08:43:41;;;;;;;3.00;2.00;;;18.90;99.90;;;;;;5004381;28;20430;-27
2021/07/19 08:46:13;;;;;;;2.37;1.57;;;18.80;99.90;;;;;;5010697;28;20474;-27
2021/07/19 08:48:45;;;;;;;1.43;1.33;;;18.80;99.90;;;;;;5005141;28;20444;-27
2021/07/19 08:51:19;;;;;;;4.17;2.90;;;18.70;99.90;;;;;;5007350;28;20483;-27
2021/07/19 08:53:50;;;;;;;2.30;1.73;;;18.60;99.90;;;;;;5021699;28;20496;-27
2021/07/19 08:56:21;;;;;;;1.90;1.60;;;18.60;99.90;;;;;;5004577;28;20518;-27
2021/07/19 08:58:52;;;;;;;1.70;1.60;;;18.50;99.90;;;;;;5012077;28;20473;-27
2021/07/19 09:01:24;;;;;;;2.20;2.00;;;18.50;99.90;;;;;;5014590;28;20473;-27
2021/07/19 09:03:55;;;;;;;1.70;1.57;;;18.50;99.90;;;;;;5024046;28;20475;-27
2021/07/19 09:06:28;;;;;;;5.27;1.73;;;18.40;99.90;;;;;;5023302;28;20946;-27
2021/07/19 09:09:02;;;;;;;1.97;1.77;;;18.40;99.90;;;;;;5024129;28;20451;-27
2021/07/19 09:11:33;;;;;;;2.30;1.70;;;18.30;99.90;;;;;;5005789;28;20469;-27
2021/07/19 09:14:06;;;;;;;2.50;1.70;;;18.20;99.90;;;;;;5013478;28;20451;-27
2021/07/19 09:16:43;;;;;;;2.30;2.10;;;18.10;99.90;;;;;;5004179;28;20475;-27
2021/07/19 09:19:16;;;;;;;1.97;1.83;;;18.10;99.90;;;;;;5012581;28;20459;-27
2021/07/19 09:21:50;;;;;;;1.87;1.60;;;18.10;99.90;;;;;;5006618;28;20452;-27
2021/07/19 09:24:24;;;;;;;4.67;1.87;;;18.00;99.90;;;;;;5012152;28;20480;-26
2021/07/19 09:26:55;;;;;;;3.10;2.83;;;18.10;99.90;;;;;;5020927;28;20477;-27
2021/07/19 09:29:27;;;;;;;2.00;1.77;;;18.00;99.90;;;;;;5007686;28;20469;-26
2021/07/19 09:31:59;;;;;;;2.80;1.60;;;17.90;99.90;;;;;;5021904;28;20425;-27
2021/07/19 09:34:32;;;;;;;3.37;1.70;;;17.90;99.90;;;;;;5011488;28;20418;-26
2021/07/19 09:37:06;;;;;;;2.37;1.80;;;17.80;99.90;;;;;;5011780;28;20992;-26
2021/07/19 09:39:43;;;;;;;2.17;1.97;;;17.70;99.90;;;;;;5012262;28;20501;-27
2021/07/19 09:42:16;;;;;;;2.00;1.70;;;17.70;99.90;;;;;;5010447;28;20480;-28
2021/07/19 09:44:53;;;;;;;5.23;1.90;;;17.60;99.90;;;;;;5007513;28;20451;-28
2021/07/19 09:47:34;;;;;;;1.87;1.77;;;17.70;99.90;;;;;;5019611;28;20462;-27
2021/07/19 09:50:11;;;;;;;2.57;1.80;;;17.60;99.90;;;;;;5020093;28;20486;-26
2021/07/19 09:52:44;;;;;;;1.83;1.73;;;17.50;99.90;;;;;;5003210;28;20974;-27
2021/07/19 09:55:15;;;;;;;1.97;1.80;;;17.50;99.90;;;;;;5013767;28;20497;-26
2021/07/19 09:57:55;;;;;;;2.70;1.60;;;17.50;99.90;;;;;;5014939;28;20455;-26
2021/07/19 10:00:27;;;;;;;1.80;1.70;;;17.40;99.90;;;;;;5015358;28;20847;-26
2021/07/19 10:02:59;;;;;;;2.90;2.17;;;17.30;99.90;;;;;;5016785;28;20485;-27
2021/07/19 10:05:30;;;;;;;1.77;1.67;;;17.20;99.90;;;;;;5016606;28;20447;-27
2021/07/19 10:08:03;;;;;;;1.80;1.70;;;17.20;99.90;;;;;;5004715;28;20473;-27
2021/07/19 10:10:35;;;;;;;1.93;1.73;;;17.20;99.90;;;;;;5003861;28;20463;-27
2021/07/19 10:13:08;;;;;;;2.80;1.80;;;17.20;99.90;;;;;;5003436;28;20525;-27
2021/07/19 10:15:40;;;;;;;1.70;1.40;;;17.20;99.90;;;;;;5005766;28;20459;-27
2021/07/19 10:18:12;;;;;;;2.30;1.83;;;17.20;99.90;;;;;;5006349;28;20451;-27
2021/07/19 10:20:43;;;;;;;1.90;1.80;;;17.20;99.90;;;;;;5016022;28;20451;-27
2021/07/19 10:23:16;;;;;;;1.50;1.40;;;17.20;99.90;;;;;;5004445;28;20451;-27
2021/07/19 10:25:47;;;;;;;1.50;1.40;;;17.10;99.90;;;;;;5006352;28;20448;-27
2021/07/19 10:28:19;;;;;;;2.47;1.50;;;17.10;99.90;;;;;;5007962;28;20767;-27
2021/07/19 10:30:50;;;;;;;1.63;1.53;;;17.00;99.90;;;;;;5022549;28;20500;-27
2021/07/19 10:33:21;;;;;;;1.80;1.70;;;17.00;99.90;;;;;;5005644;28;20458;-27
2021/07/19 10:35:54;;;;;;;1.47;1.30;;;17.00;99.90;;;;;;5017972;28;20518;-27
2021/07/19 10:38:31;;;;;;;2.13;1.93;;;17.00;99.90;;;;;;5006814;28;20542;-27
2021/07/19 10:41:23;;;;;;;2.23;1.50;;;17.00;99.90;;;;;;5005903;28;20511;-27
2021/07/19 10:44:05;;;;;;;1.90;1.80;;;17.00;99.90;;;;;;5009083;28;20442;-27
2021/07/19 10:46:36;;;;;;;1.90;1.50;;;16.90;99.90;;;;;;5007788;28;20451;-26
2021/07/19 10:49:12;;;;;;;2.30;1.60;;;16.90;99.90;;;;;;5011233;28;20472;-27
2021/07/19 10:51:45;;;;;;;2.20;1.40;;;16.90;99.90;;;;;;5016429;28;20449;-27
2021/07/19 10:54:20;;;;;;;2.40;1.40;;;16.90;99.90;;;;;;5012544;28;20525;-27
2021/07/19 10:56:55;;;;;;;1.67;1.57;;;16.90;99.90;;;;;;5014539;28;20478;-28
2021/07/19 10:59:30;;;;;;;2.60;1.23;;;16.90;99.90;;;;;;5013662;28;20438;-27
2021/07/19 11:02:01;;;;;;;2.07;1.63;;;16.90;99.90;;;;;;5009894;28;20791;-27
2021/07/19 11:04:33;;;;;;;1.47;1.37;;;16.90;99.90;;;;;;5014260;28;20536;-26
2021/07/19 11:07:13;;;;;;;2.23;2.10;;;16.90;99.90;;;;;;5010038;28;20451;-26
2021/07/19 11:09:46;;;;;;;2.33;1.50;;;16.90;99.90;;;;;;5015695;28;20453;-27
2021/07/19 11:12:18;;;;;;;1.90;1.67;;;16.80;99.90;;;;;;5016768;28;20483;-27
2021/07/19 11:14:50;;;;;;;3.03;1.60;;;16.70;99.90;;;;;;5005336;28;20457;-27
2021/07/19 11:17:22;;;;;;;1.77;1.67;;;16.70;99.90;;;;;;5019556;28;20513;-27
2021/07/19 11:19:56;;;;;;;1.27;1.17;;;16.70;99.90;;;;;;5009273;28;20466;-27
2021/07/19 11:22:28;;;;;;;1.90;1.80;;;16.60;99.90;;;;;;5018068;28;20454;-27
2021/07/19 11:25:11;;;;;;;1.60;1.50;;;16.70;99.90;;;;;;5023538;28;20486;-26
2021/07/19 11:27:43;;;;;;;1.80;1.70;;;16.60;99.90;;;;;;5017178;28;20494;-27
2021/07/19 11:30:18;;;;;;;2.90;1.57;;;16.60;99.90;;;;;;5017192;28;20516;-27
2021/07/19 11:32:50;;;;;;;2.33;1.70;;;16.60;99.90;;;;;;5025416;28;20473;-27
2021/07/19 11:35:22;;;;;;;1.70;1.60;;;16.70;99.90;;;;;;5019535;28;20861;-27
2021/07/19 11:37:56;;;;;;;2.30;1.70;;;16.60;99.90;;;;;;5018802;28;20516;-27
2021/07/19 11:40:35;;;;;;;2.23;1.43;;;16.60;99.90;;;;;;5008061;28;20584;-27
2021/07/19 11:43:15;;;;;;;1.30;1.17;;;16.60;99.90;;;;;;5010609;28;20477;-26
2021/07/19 11:45:52;;;;;;;1.80;1.70;;;16.60;99.90;;;;;;5015984;28;20458;-26
2021/07/19 11:48:24;;;;;;;1.70;1.60;;;16.60;99.90;;;;;;5017883;28;20564;-26
2021/07/19 11:50:58;;;;;;;1.30;1.10;;;16.50;99.90;;;;;;5005401;28;20482;-26
2021/07/19 11:53:29;;;;;;;4.80;1.40;;;16.50;99.90;;;;;;5006267;28;20455;-27
2021/07/19 11:56:07;;;;;;;3.37;1.27;;;16.40;99.90;;;;;;5005480;28;20487;-26
2021/07/19 11:58:41;;;;;;;1.47;1.37;;;16.40;99.90;;;;;;5009134;28;20485;-27
2021/07/19 12:01:13;;;;;;;1.83;1.33;;;16.40;99.90;;;;;;5011886;28;20482;-27
2021/07/19 12:03:44;;;;;;;1.47;1.30;;;16.30;99.90;;;;;;5006722;28;20447;-28
2021/07/19 12:06:14;;;;;;;3.10;1.60;;;16.30;99.90;;;;;;5009708;28;20450;-26
2021/07/19 12:08:53;;;;;;;1.60;1.50;;;16.30;99.90;;;;;;5015501;28;20471;-26
2021/07/19 12:11:26;;;;;;;1.63;1.33;;;16.30;99.90;;;;;;5023292;28;20454;-27
2021/07/19 12:14:03;;;;;;;1.33;1.23;;;16.30;99.90;;;;;;5024471;28;20451;-26
2021/07/19 12:16:37;;;;;;;1.27;1.17;;;16.20;99.90;;;;;;5023928;28;20462;-27
2021/07/19 12:19:09;;;;;;;2.20;1.47;;;16.20;99.90;;;;;;5015970;28;21010;-26
2021/07/19 12:21:42;;;;;;;1.33;1.23;;;16.20;99.90;;;;;;5023627;28;20473;-27
2021/07/19 12:24:14;;;;;;;2.07;1.30;;;16.20;99.90;;;;;;5020188;28;20570;-26
2021/07/19 12:26:48;;;;;;;2.23;1.37;;;16.10;99.90;;;;;;5021761;28;20794;-26
2021/07/19 12:29:20;;;;;;;2.50;1.50;;;16.10;99.90;;;;;;5024349;28;20485;-27
2021/07/19 12:31:55;;;;;;;1.90;1.50;;;16.10;99.90;;;;;;5018980;28;20471;-27
2021/07/19 12:34:28;;;;;;;1.40;1.30;;;16.00;99.90;;;;;;5004833;28;20950;-27
2021/07/19 12:37:02;;;;;;;1.30;1.20;;;16.00;99.90;;;;;;5018920;28;20513;-27
2021/07/19 12:39:34;;;;;;;1.90;1.20;;;16.00;99.90;;;;;;5009064;28;20451;-26
2021/07/19 12:42:10;;;;;;;1.07;1.07;;;16.00;99.90;;;;;;5022358;28;20537;-27
2021/07/19 12:44:42;;;;;;;1.50;1.27;;;16.00;99.90;;;;;;5007219;28;20458;-27
2021/07/19 12:47:17;;;;;;;1.47;1.37;;;15.90;99.90;;;;;;5005972;28;20462;-27
2021/07/19 12:49:49;;;;;;;2.13;1.37;;;15.90;99.90;;;;;;5004926;28;20451;-27
2021/07/19 12:52:21;;;;;;;3.00;1.97;;;15.90;99.90;;;;;;5004279;28;20451;-27
2021/07/19 12:55:14;;;;;;;3.20;1.27;;;15.80;99.90;;;;;;5009407;28;20447;-26
2021/07/19 12:57:51;;;;;;;1.17;1.07;;;15.80;99.90;;;;;;5012227;28;20483;-26
2021/07/19 13:00:23;;;;;;;2.03;1.50;;;15.80;99.90;;;;;;5014799;28;20461;-26
2021/07/19 13:03:03;;;;;;;1.50;1.40;;;15.70;99.90;;;;;;5016360;28;20455;-26
2021/07/19 13:05:35;;;;;;;1.83;1.23;;;15.70;99.90;;;;;;5005441;28;20451;-27
2021/07/19 13:08:07;;;;;;;1.20;1.10;;;15.70;99.90;;;;;;5020069;28;20473;-27
2021/07/19 13:10:38;;;;;;;1.20;1.10;;;15.70;99.90;;;;;;5004913;28;20435;-27
2021/07/19 13:13:11;;;;;;;1.80;0.90;;;15.70;99.90;;;;;;5009735;28;20454;-27
2021/07/19 13:15:42;;;;;;;2.77;1.30;;;15.70;99.90;;;;;;5004820;28;20468;-27
2021/07/19 13:18:22;;;;;;;1.47;1.20;;;15.70;99.90;;;;;;5012637;28;20509;-26